sensor_id;sensor_type;location;lat;lon;timestamp;temperature;humidity
15298;DHT22;7750;48.796;9.026;2022-07-29T00:03:54;24.80;57.10
15298;DHT22;7750;48.796;9.026;2022-07-29T00:08:55;24.80;56.80
15298;DHT22;7750;48.796;9.026;2022-07-29T00:13:56;24.80;56.90
15298;DHT22;7750;48.796;9.026;2022-07-29T00:18:56;24.70;57.10
15298;DHT22;7750;48.796;9.026;2022-07-29T00:23:57;24.70;57.40
15298;DHT22;7750;48.796;9.026;2022-07-29T00:29:02;24.60;57.50
15298;DHT22;7750;48.796;9.026;2022-07-29T00:34:03;24.50;58.30
15298;DHT22;7750;48.796;9.026;2022-07-29T00:39:04;24.40;58.10
15298;DHT22;7750;48.796;9.026;2022-07-29T00:44:04;24.40;58.60
15298;DHT22;7750;48.796;9.026;2022-07-29T00:49:05;24.30;58.50
15298;DHT22;7750;48.796;9.026;2022-07-29T00:54:07;24.30;58.50
15298;DHT22;7750;48.796;9.026;2022-07-29T00:59:08;24.20;58.70
15298;DHT22;7750;48.796;9.026;2022-07-29T01:04:09;24.20;58.80
15298;DHT22;7750;48.796;9.026;2022-07-29T01:09:10;24.20;58.90
15298;DHT22;7750;48.796;9.026;2022-07-29T01:14:12;24.10;58.90
15298;DHT22;7750;48.796;9.026;2022-07-29T01:30:03;24.00;59.80
15298;DHT22;7750;48.796;9.026;2022-07-29T01:35:20;24.00;59.70
15298;DHT22;7750;48.796;9.026;2022-07-29T01:40:28;23.90;60.40
15298;DHT22;7750;48.796;9.026;2022-07-29T01:45:43;23.90;60.50
15298;DHT22;7750;48.796;9.026;2022-07-29T01:51:00;23.80;60.60
15298;DHT22;7750;48.796;9.026;2022-07-29T01:56:03;23.80;60.70
15298;DHT22;7750;48.796;9.026;2022-07-29T02:01:05;23.80;60.60
15298;DHT22;7750;48.796;9.026;2022-07-29T02:06:08;23.70;61.10
15298;DHT22;7750;48.796;9.026;2022-07-29T02:11:09;23.70;61.40
15298;DHT22;7750;48.796;9.026;2022-07-29T02:16:10;23.60;61.40
15298;DHT22;7750;48.796;9.026;2022-07-29T02:21:13;23.60;62.10
15298;DHT22;7750;48.796;9.026;2022-07-29T02:26:17;23.50;61.70
15298;DHT22;7750;48.796;9.026;2022-07-29T02:31:22;23.50;62.00
15298;DHT22;7750;48.796;9.026;2022-07-29T02:36:24;23.50;62.10
15298;DHT22;7750;48.796;9.026;2022-07-29T02:41:29;23.50;62.10
15298;DHT22;7750;48.796;9.026;2022-07-29T02:46:36;23.40;62.40
15298;DHT22;7750;48.796;9.026;2022-07-29T02:51:55;23.40;62.50
15298;DHT22;7750;48.796;9.026;2022-07-29T02:57:00;23.40;63.10
15298;DHT22;7750;48.796;9.026;2022-07-29T03:02:02;23.30;63.80
15298;DHT22;7750;48.796;9.026;2022-07-29T03:07:05;23.30;63.50
15298;DHT22;7750;48.796;9.026;2022-07-29T03:12:06;23.20;63.40
15298;DHT22;7750;48.796;9.026;2022-07-29T03:17:08;23.20;63.80
15298;DHT22;7750;48.796;9.026;2022-07-29T03:22:10;23.10;63.80
15298;DHT22;7750;48.796;9.026;2022-07-29T03:27:11;23.10;64.40
15298;DHT22;7750;48.796;9.026;2022-07-29T03:32:11;23.10;64.40
15298;DHT22;7750;48.796;9.026;2022-07-29T03:37:12;23.00;64.30
15298;DHT22;7750;48.796;9.026;2022-07-29T03:42:15;23.00;64.70
15298;DHT22;7750;48.796;9.026;2022-07-29T03:47:19;22.90;64.70
15298;DHT22;7750;48.796;9.026;2022-07-29T03:52:21;22.90;65.10
15298;DHT22;7750;48.796;9.026;2022-07-29T03:57:24;22.80;64.70
15298;DHT22;7750;48.796;9.026;2022-07-29T04:02:27;22.80;65.10
15298;DHT22;7750;48.796;9.026;2022-07-29T04:07:28;22.70;64.70
15298;DHT22;7750;48.796;9.026;2022-07-29T04:12:29;22.70;65.10
15298;DHT22;7750;48.796;9.026;2022-07-29T04:17:30;22.60;65.00
15298;DHT22;7750;48.796;9.026;2022-07-29T04:22:30;22.60;64.80
15298;DHT22;7750;48.796;9.026;2022-07-29T04:27:31;22.60;65.60
15298;DHT22;7750;48.796;9.026;2022-07-29T04:32:32;22.50;65.30
15298;DHT22;7750;48.796;9.026;2022-07-29T04:37:32;22.50;65.50
15298;DHT22;7750;48.796;9.026;2022-07-29T04:42:33;22.50;65.60
15298;DHT22;7750;48.796;9.026;2022-07-29T04:47:34;22.50;66.00
15298;DHT22;7750;48.796;9.026;2022-07-29T04:52:34;22.40;65.90
15298;DHT22;7750;48.796;9.026;2022-07-29T04:57:35;22.50;66.00
15298;DHT22;7750;48.796;9.026;2022-07-29T05:02:36;22.50;66.40
15298;DHT22;7750;48.796;9.026;2022-07-29T05:07:37;22.50;66.10
15298;DHT22;7750;48.796;9.026;2022-07-29T05:12:37;22.50;66.40
15298;DHT22;7750;48.796;9.026;2022-07-29T05:17:38;22.60;66.70
15298;DHT22;7750;48.796;9.026;2022-07-29T05:22:39;22.60;66.70
15298;DHT22;7750;48.796;9.026;2022-07-29T05:27:39;22.70;66.70
15298;DHT22;7750;48.796;9.026;2022-07-29T05:32:40;22.80;67.00
15298;DHT22;7750;48.796;9.026;2022-07-29T05:37:41;22.90;66.90
15298;DHT22;7750;48.796;9.026;2022-07-29T05:42:42;22.90;66.90
15298;DHT22;7750;48.796;9.026;2022-07-29T05:47:42;23.00;66.80
15298;DHT22;7750;48.796;9.026;2022-07-29T05:52:43;23.10;67.00
15298;DHT22;7750;48.796;9.026;2022-07-29T05:57:43;23.20;66.70
15298;DHT22;7750;48.796;9.026;2022-07-29T06:02:45;23.40;66.80
15298;DHT22;7750;48.796;9.026;2022-07-29T06:07:46;23.50;66.70
15298;DHT22;7750;48.796;9.026;2022-07-29T06:12:47;23.70;66.50
15298;DHT22;7750;48.796;9.026;2022-07-29T06:17:48;23.80;66.30
15298;DHT22;7750;48.796;9.026;2022-07-29T06:22:48;23.90;66.00
15298;DHT22;7750;48.796;9.026;2022-07-29T06:27:49;24.00;66.00
15298;DHT22;7750;48.796;9.026;2022-07-29T06:32:50;24.10;66.10
15298;DHT22;7750;48.796;9.026;2022-07-29T06:37:50;24.20;65.90
15298;DHT22;7750;48.796;9.026;2022-07-29T06:42:51;24.40;65.70
15298;DHT22;7750;48.796;9.026;2022-07-29T06:47:52;24.40;65.20
15298;DHT22;7750;48.796;9.026;2022-07-29T06:52:53;24.50;65.40
15298;DHT22;7750;48.796;9.026;2022-07-29T06:57:53;24.60;65.20
15298;DHT22;7750;48.796;9.026;2022-07-29T07:02:54;24.80;65.20
15298;DHT22;7750;48.796;9.026;2022-07-29T07:07:55;25.10;65.30
15298;DHT22;7750;48.796;9.026;2022-07-29T07:12:55;25.40;64.80
15298;DHT22;7750;48.796;9.026;2022-07-29T07:17:56;25.70;63.90
15298;DHT22;7750;48.796;9.026;2022-07-29T07:22:57;25.90;63.50
15298;DHT22;7750;48.796;9.026;2022-07-29T07:27:58;26.30;63.60
15298;DHT22;7750;48.796;9.026;2022-07-29T07:32:59;26.50;63.30
15298;DHT22;7750;48.796;9.026;2022-07-29T07:38:00;26.80;62.00
15298;DHT22;7750;48.796;9.026;2022-07-29T07:43:01;27.10;61.90
15298;DHT22;7750;48.796;9.026;2022-07-29T07:48:01;27.40;61.20
15298;DHT22;7750;48.796;9.026;2022-07-29T07:53:02;27.80;60.70
15298;DHT22;7750;48.796;9.026;2022-07-29T07:58:03;28.30;59.70
15298;DHT22;7750;48.796;9.026;2022-07-29T08:03:04;28.60;56.80
15298;DHT22;7750;48.796;9.026;2022-07-29T08:08:04;28.70;56.90
15298;DHT22;7750;48.796;9.026;2022-07-29T08:13:06;28.80;56.20
15298;DHT22;7750;48.796;9.026;2022-07-29T08:18:07;29.00;55.50
15298;DHT22;7750;48.796;9.026;2022-07-29T08:23:08;29.20;54.70
15298;DHT22;7750;48.796;9.026;2022-07-29T08:28:09;29.50;55.40
15298;DHT22;7750;48.796;9.026;2022-07-29T08:33:09;29.80;54.80
15298;DHT22;7750;48.796;9.026;2022-07-29T08:38:13;30.10;53.50
15298;DHT22;7750;48.796;9.026;2022-07-29T08:43:14;30.20;53.00
15298;DHT22;7750;48.796;9.026;2022-07-29T08:48:24;30.20;52.00
15298;DHT22;7750;48.796;9.026;2022-07-29T08:53:26;30.30;51.40
15298;DHT22;7750;48.796;9.026;2022-07-29T08:58:32;30.40;50.90
15298;DHT22;7750;48.796;9.026;2022-07-29T09:03:37;30.40;49.70
15298;DHT22;7750;48.796;9.026;2022-07-29T09:08:40;30.40;49.60
15298;DHT22;7750;48.796;9.026;2022-07-29T09:13:41;30.20;49.90
15298;DHT22;7750;48.796;9.026;2022-07-29T09:18:44;30.10;50.70
15298;DHT22;7750;48.796;9.026;2022-07-29T09:24:08;30.10;50.60
15298;DHT22;7750;48.796;9.026;2022-07-29T09:29:18;30.10;49.10
15298;DHT22;7750;48.796;9.026;2022-07-29T09:34:27;30.00;49.70
15298;DHT22;7750;48.796;9.026;2022-07-29T09:39:34;30.00;49.20
15298;DHT22;7750;48.796;9.026;2022-07-29T09:44:49;30.00;50.30
15298;DHT22;7750;48.796;9.026;2022-07-29T09:49:55;30.30;49.90
15298;DHT22;7750;48.796;9.026;2022-07-29T09:55:08;30.20;50.30
15298;DHT22;7750;48.796;9.026;2022-07-29T10:00:14;30.20;50.40
15298;DHT22;7750;48.796;9.026;2022-07-29T10:05:23;30.30;51.00
15298;DHT22;7750;48.796;9.026;2022-07-29T10:10:29;30.90;48.20
15298;DHT22;7750;48.796;9.026;2022-07-29T10:15:47;30.50;48.20
15298;DHT22;7750;48.796;9.026;2022-07-29T10:32:33;30.00;48.40
15298;DHT22;7750;48.796;9.026;2022-07-29T10:38:04;29.90;47.80
15298;DHT22;7750;48.796;9.026;2022-07-29T10:43:27;29.70;48.50
15298;DHT22;7750;48.796;9.026;2022-07-29T10:48:29;29.50;49.20
15298;DHT22;7750;48.796;9.026;2022-07-29T10:53:49;29.30;49.50
15298;DHT22;7750;48.796;9.026;2022-07-29T10:59:26;29.10;51.10
15298;DHT22;7750;48.796;9.026;2022-07-29T11:09:44;28.60;53.00
15298;DHT22;7750;48.796;9.026;2022-07-29T11:25:31;27.80;54.30
15298;DHT22;7750;48.796;9.026;2022-07-29T11:31:05;27.60;54.80
15298;DHT22;7750;48.796;9.026;2022-07-29T11:36:13;27.70;55.10
15298;DHT22;7750;48.796;9.026;2022-07-29T11:41:20;27.60;55.30
15298;DHT22;7750;48.796;9.026;2022-07-29T11:47:03;27.70;55.60
15298;DHT22;7750;48.796;9.026;2022-07-29T11:52:04;27.90;55.00
15298;DHT22;7750;48.796;9.026;2022-07-29T11:57:07;27.90;55.40
15298;DHT22;7750;48.796;9.026;2022-07-29T12:02:08;28.00;55.30
15298;DHT22;7750;48.796;9.026;2022-07-29T12:07:09;28.10;54.50
15298;DHT22;7750;48.796;9.026;2022-07-29T12:12:20;28.20;54.30
15298;DHT22;7750;48.796;9.026;2022-07-29T12:17:29;28.30;53.80
15298;DHT22;7750;48.796;9.026;2022-07-29T12:22:37;28.40;52.80
15298;DHT22;7750;48.796;9.026;2022-07-29T12:27:40;28.30;53.70
15298;DHT22;7750;48.796;9.026;2022-07-29T12:32:46;28.10;54.10
15298;DHT22;7750;48.796;9.026;2022-07-29T12:37:48;28.00;55.20
15298;DHT22;7750;48.796;9.026;2022-07-29T12:43:11;27.80;55.40
15298;DHT22;7750;48.796;9.026;2022-07-29T12:48:13;27.70;55.20
15298;DHT22;7750;48.796;9.026;2022-07-29T12:53:14;27.50;55.30
15298;DHT22;7750;48.796;9.026;2022-07-29T13:03:28;27.20;56.00
15298;DHT22;7750;48.796;9.026;2022-07-29T13:08:29;27.10;56.50
15298;DHT22;7750;48.796;9.026;2022-07-29T13:13:30;27.00;56.80
15298;DHT22;7750;48.796;9.026;2022-07-29T13:18:33;27.00;57.20
15298;DHT22;7750;48.796;9.026;2022-07-29T13:23:35;26.90;56.40
15298;DHT22;7750;48.796;9.026;2022-07-29T13:28:36;26.80;56.10
15298;DHT22;7750;48.796;9.026;2022-07-29T13:33:37;26.80;56.00
15298;DHT22;7750;48.796;9.026;2022-07-29T13:38:37;26.70;56.40
15298;DHT22;7750;48.796;9.026;2022-07-29T13:43:38;26.70;56.70
15298;DHT22;7750;48.796;9.026;2022-07-29T13:48:39;26.70;56.70
15298;DHT22;7750;48.796;9.026;2022-07-29T13:53:39;26.80;56.60
15298;DHT22;7750;48.796;9.026;2022-07-29T13:58:40;26.90;56.50
15298;DHT22;7750;48.796;9.026;2022-07-29T14:03:41;27.00;56.30
15298;DHT22;7750;48.796;9.026;2022-07-29T14:08:43;27.20;56.60
15298;DHT22;7750;48.796;9.026;2022-07-29T14:13:44;27.30;57.00
15298;DHT22;7750;48.796;9.026;2022-07-29T14:18:45;27.50;56.40
15298;DHT22;7750;48.796;9.026;2022-07-29T14:23:45;27.60;56.90
15298;DHT22;7750;48.796;9.026;2022-07-29T14:28:46;27.80;55.80
15298;DHT22;7750;48.796;9.026;2022-07-29T14:33:47;27.90;55.60
15298;DHT22;7750;48.796;9.026;2022-07-29T14:38:48;27.90;55.30
15298;DHT22;7750;48.796;9.026;2022-07-29T14:43:48;28.00;55.50
15298;DHT22;7750;48.796;9.026;2022-07-29T14:48:49;28.10;56.20
15298;DHT22;7750;48.796;9.026;2022-07-29T14:53:50;28.20;55.00
15298;DHT22;7750;48.796;9.026;2022-07-29T14:58:50;28.20;54.80
15298;DHT22;7750;48.796;9.026;2022-07-29T15:03:51;28.20;54.00
15298;DHT22;7750;48.796;9.026;2022-07-29T15:08:52;28.30;53.70
15298;DHT22;7750;48.796;9.026;2022-07-29T15:13:55;28.40;54.00
15298;DHT22;7750;48.796;9.026;2022-07-29T15:18:56;28.50;53.10
15298;DHT22;7750;48.796;9.026;2022-07-29T15:23:58;28.50;52.70
15298;DHT22;7750;48.796;9.026;2022-07-29T15:28:59;28.60;52.60
15298;DHT22;7750;48.796;9.026;2022-07-29T15:34:00;28.60;51.60
15298;DHT22;7750;48.796;9.026;2022-07-29T15:39:01;28.60;51.40
15298;DHT22;7750;48.796;9.026;2022-07-29T15:44:02;28.70;52.50
15298;DHT22;7750;48.796;9.026;2022-07-29T15:49:04;28.70;51.80
15298;DHT22;7750;48.796;9.026;2022-07-29T15:54:05;28.70;52.50
15298;DHT22;7750;48.796;9.026;2022-07-29T15:59:06;28.70;52.80
15298;DHT22;7750;48.796;9.026;2022-07-29T16:04:06;28.70;51.50
15298;DHT22;7750;48.796;9.026;2022-07-29T16:09:07;28.70;51.30
15298;DHT22;7750;48.796;9.026;2022-07-29T16:14:08;28.60;51.80
15298;DHT22;7750;48.796;9.026;2022-07-29T16:19:10;28.60;52.60
15298;DHT22;7750;48.796;9.026;2022-07-29T16:24:11;28.50;51.70
15298;DHT22;7750;48.796;9.026;2022-07-29T16:29:12;28.50;51.60
15298;DHT22;7750;48.796;9.026;2022-07-29T16:34:12;28.50;52.50
15298;DHT22;7750;48.796;9.026;2022-07-29T16:39:13;28.50;53.30
15298;DHT22;7750;48.796;9.026;2022-07-29T16:44:13;28.50;53.20
15298;DHT22;7750;48.796;9.026;2022-07-29T16:49:15;28.40;52.10
15298;DHT22;7750;48.796;9.026;2022-07-29T16:54:15;28.40;51.10
15298;DHT22;7750;48.796;9.026;2022-07-29T16:59:16;28.40;51.20
15298;DHT22;7750;48.796;9.026;2022-07-29T17:04:17;28.30;52.80
15298;DHT22;7750;48.796;9.026;2022-07-29T17:09:18;28.40;53.40
15298;DHT22;7750;48.796;9.026;2022-07-29T17:14:23;28.30;53.50
15298;DHT22;7750;48.796;9.026;2022-07-29T17:19:25;28.40;53.50
15298;DHT22;7750;48.796;9.026;2022-07-29T17:24:25;28.40;53.60
15298;DHT22;7750;48.796;9.026;2022-07-29T17:29:26;28.40;53.30
15298;DHT22;7750;48.796;9.026;2022-07-29T17:34:27;28.50;53.70
15298;DHT22;7750;48.796;9.026;2022-07-29T17:39:27;28.50;53.60
15298;DHT22;7750;48.796;9.026;2022-07-29T17:44:28;28.50;53.30
15298;DHT22;7750;48.796;9.026;2022-07-29T17:49:29;28.60;53.30
15298;DHT22;7750;48.796;9.026;2022-07-29T17:54:29;28.60;53.50
15298;DHT22;7750;48.796;9.026;2022-07-29T17:59:30;28.60;51.90
15298;DHT22;7750;48.796;9.026;2022-07-29T18:04:31;28.60;50.90
15298;DHT22;7750;48.796;9.026;2022-07-29T18:09:31;28.60;49.20
15298;DHT22;7750;48.796;9.026;2022-07-29T18:14:32;28.50;48.30
15298;DHT22;7750;48.796;9.026;2022-07-29T18:19:33;28.50;48.30
15298;DHT22;7750;48.796;9.026;2022-07-29T18:24:33;28.50;47.60
15298;DHT22;7750;48.796;9.026;2022-07-29T18:29:35;28.50;47.40
15298;DHT22;7750;48.796;9.026;2022-07-29T18:34:35;28.50;46.30
15298;DHT22;7750;48.796;9.026;2022-07-29T18:39:36;28.40;46.30
15298;DHT22;7750;48.796;9.026;2022-07-29T18:44:37;28.40;46.50
15298;DHT22;7750;48.796;9.026;2022-07-29T18:49:38;28.30;46.20
15298;DHT22;7750;48.796;9.026;2022-07-29T18:54:38;28.30;46.00
15298;DHT22;7750;48.796;9.026;2022-07-29T18:59:39;28.20;46.50
15298;DHT22;7750;48.796;9.026;2022-07-29T19:04:40;28.10;46.50
15298;DHT22;7750;48.796;9.026;2022-07-29T19:09:40;28.10;46.00
15298;DHT22;7750;48.796;9.026;2022-07-29T19:14:41;28.00;46.20
15298;DHT22;7750;48.796;9.026;2022-07-29T19:19:43;27.80;46.40
15298;DHT22;7750;48.796;9.026;2022-07-29T19:24:44;27.80;46.90
15298;DHT22;7750;48.796;9.026;2022-07-29T19:29:44;27.70;47.20
15298;DHT22;7750;48.796;9.026;2022-07-29T19:34:45;27.60;47.20
15298;DHT22;7750;48.796;9.026;2022-07-29T19:40:06;27.50;47.30
15298;DHT22;7750;48.796;9.026;2022-07-29T19:45:07;27.40;47.70
15298;DHT22;7750;48.796;9.026;2022-07-29T19:50:08;27.30;47.90
15298;DHT22;7750;48.796;9.026;2022-07-29T19:55:09;27.20;48.00
15298;DHT22;7750;48.796;9.026;2022-07-29T20:00:12;27.10;48.10
15298;DHT22;7750;48.796;9.026;2022-07-29T20:05:12;27.10;48.30
15298;DHT22;7750;48.796;9.026;2022-07-29T20:10:14;26.90;48.40
15298;DHT22;7750;48.796;9.026;2022-07-29T20:15:15;26.80;48.50
15298;DHT22;7750;48.796;9.026;2022-07-29T20:20:16;26.70;48.70
15298;DHT22;7750;48.796;9.026;2022-07-29T20:25:17;26.70;48.90
15298;DHT22;7750;48.796;9.026;2022-07-29T20:30:18;26.50;49.10
15298;DHT22;7750;48.796;9.026;2022-07-29T20:35:19;26.50;48.80
15298;DHT22;7750;48.796;9.026;2022-07-29T20:40:22;26.40;48.70
15298;DHT22;7750;48.796;9.026;2022-07-29T20:45:26;26.30;48.90
15298;DHT22;7750;48.796;9.026;2022-07-29T20:50:27;26.20;48.90
15298;DHT22;7750;48.796;9.026;2022-07-29T20:55:28;26.20;48.80
15298;DHT22;7750;48.796;9.026;2022-07-29T21:00:29;26.10;48.50
15298;DHT22;7750;48.796;9.026;2022-07-29T21:05:30;26.00;48.80
15298;DHT22;7750;48.796;9.026;2022-07-29T21:10:31;25.90;48.90
15298;DHT22;7750;48.796;9.026;2022-07-29T21:15:31;25.90;49.20
15298;DHT22;7750;48.796;9.026;2022-07-29T21:20:32;25.70;49.10
15298;DHT22;7750;48.796;9.026;2022-07-29T21:25:33;25.60;49.10
15298;DHT22;7750;48.796;9.026;2022-07-29T21:30:35;25.50;49.30
15298;DHT22;7750;48.796;9.026;2022-07-29T21:35:36;25.40;50.00
15298;DHT22;7750;48.796;9.026;2022-07-29T21:40:37;25.30;50.70
15298;DHT22;7750;48.796;9.026;2022-07-29T21:45:38;25.20;51.30
15298;DHT22;7750;48.796;9.026;2022-07-29T22:41:42;24.20;54.00
15298;DHT22;7750;48.796;9.026;2022-07-29T22:46:43;24.10;54.40
15298;DHT22;7750;48.796;9.026;2022-07-29T22:51:43;24.00;54.30
15298;DHT22;7750;48.796;9.026;2022-07-29T22:56:44;23.80;54.40
15298;DHT22;7750;48.796;9.026;2022-07-29T23:01:45;23.80;54.60
15298;DHT22;7750;48.796;9.026;2022-07-29T23:06:45;23.60;54.60
15298;DHT22;7750;48.796;9.026;2022-07-29T23:11:46;23.50;54.80
15298;DHT22;7750;48.796;9.026;2022-07-29T23:16:46;23.40;54.80
15298;DHT22;7750;48.796;9.026;2022-07-29T23:21:47;23.30;55.00
15298;DHT22;7750;48.796;9.026;2022-07-29T23:26:48;23.20;55.30
15298;DHT22;7750;48.796;9.026;2022-07-29T23:31:48;23.10;55.30
15298;DHT22;7750;48.796;9.026;2022-07-29T23:36:49;23.10;55.50
15298;DHT22;7750;48.796;9.026;2022-07-29T23:41:49;23.00;55.70
15298;DHT22;7750;48.796;9.026;2022-07-29T23:46:50;22.90;55.90
15298;DHT22;7750;48.796;9.026;2022-07-29T23:51:51;22.80;55.80
15298;DHT22;7750;48.796;9.026;2022-07-29T23:56:51;22.80;56.10
